Time;durP1;ratioP1;P1;durP2;ratioP2;P2;SDS_P1;SDS_P2;PMS_P1;PMS_P2;Temp;Humidity;BMP_temperature;BMP_pressure;BME280_temperature;BME280_humidity;BME280_pressure;Samples;Min_cycle;Max_cycle;Signal;HPM_P1;HPM_P2
2021/10/08 00:00:00;;;;;;;6.05;4.13;;;11.60;99.90;;;;;;5040653;28;20517;-79
2021/10/08 00:02:27;;;;;;;6.22;4.13;;;11.60;99.90;;;;;;5040175;28;20044;-79
2021/10/08 00:04:54;;;;;;;6.10;4.25;;;11.50;99.90;;;;;;5040525;28;20050;-79
2021/10/08 00:07:22;;;;;;;7.05;4.53;;;11.50;99.90;;;;;;5043325;28;20103;-79
2021/10/08 00:09:49;;;;;;;6.38;4.00;;;11.50;99.90;;;;;;5039023;28;20574;-79
2021/10/08 00:12:16;;;;;;;7.88;4.18;;;11.40;99.90;;;;;;5040368;28;20145;-80
2021/10/08 00:14:44;;;;;;;7.65;4.20;;;11.40;99.90;;;;;;5043224;28;20120;-78
2021/10/08 00:17:11;;;;;;;7.35;4.20;;;11.40;99.90;;;;;;5042590;28;20160;-79
2021/10/08 00:19:38;;;;;;;7.03;4.20;;;11.40;99.90;;;;;;5040071;28;20049;-79
2021/10/08 00:22:05;;;;;;;6.95;4.15;;;11.40;99.90;;;;;;5035085;28;20051;-77
2021/10/08 00:24:33;;;;;;;6.47;4.30;;;11.40;99.90;;;;;;5042436;28;20124;-77
2021/10/08 00:27:00;;;;;;;6.90;3.95;;;11.40;99.90;;;;;;5043125;28;20049;-77
2021/10/08 00:29:27;;;;;;;8.00;4.30;;;11.40;99.90;;;;;;5040136;28;20136;-79
2021/10/08 00:31:54;;;;;;;5.70;4.20;;;11.40;99.90;;;;;;5041839;28;20140;-78
2021/10/08 00:34:21;;;;;;;5.72;3.92;;;11.40;99.90;;;;;;5040994;28;20140;-78
2021/10/08 00:36:49;;;;;;;6.43;3.88;;;11.30;99.90;;;;;;5037600;28;20687;-80
2021/10/08 00:39:16;;;;;;;7.80;4.10;;;11.30;99.90;;;;;;5042893;28;20081;-78
2021/10/08 00:41:46;;;;;;;6.28;4.00;;;11.30;99.90;;;;;;5052949;28;20077;-79
2021/10/08 00:44:13;;;;;;;6.90;4.40;;;11.30;99.90;;;;;;5033401;28;20551;-80
2021/10/08 00:46:40;;;;;;;6.68;4.18;;;11.30;99.90;;;;;;5052103;28;20459;-79
2021/10/08 00:49:07;;;;;;;6.63;4.25;;;11.30;99.90;;;;;;5041674;28;20693;-80
2021/10/08 00:51:34;;;;;;;7.00;4.30;;;11.30;99.90;;;;;;5042587;28;20136;-79
2021/10/08 00:54:01;;;;;;;7.28;3.85;;;11.30;99.90;;;;;;5043013;28;20582;-79
2021/10/08 00:56:30;;;;;;;5.82;4.10;;;11.40;99.90;;;;;;5045407;28;20132;-77
2021/10/08 00:58:59;;;;;;;32.45;17.08;;;11.40;99.90;;;;;;5045061;28;20068;-80
2021/10/08 01:01:27;;;;;;;19.13;10.02;;;11.40;99.90;;;;;;5043720;28;20048;-78
2021/10/08 01:03:54;;;;;;;10.65;6.05;;;11.40;99.90;;;;;;5042899;28;20137;-79
2021/10/08 01:06:21;;;;;;;7.75;4.85;;;11.30;99.90;;;;;;5044400;28;20049;-77
2021/10/08 01:08:48;;;;;;;6.53;4.00;;;11.30;99.90;;;;;;5046202;28;20128;-77
2021/10/08 01:11:19;;;;;;;7.20;3.97;;;11.30;99.90;;;;;;5044831;28;20132;-78
2021/10/08 01:13:46;;;;;;;6.57;3.70;;;11.30;99.90;;;;;;5043011;28;20069;-80
2021/10/08 01:16:14;;;;;;;7.65;3.97;;;11.30;99.90;;;;;;5043247;28;20144;-79
2021/10/08 01:18:41;;;;;;;6.97;4.07;;;11.30;99.90;;;;;;5046354;28;20140;-79
2021/10/08 01:21:10;;;;;;;8.15;3.72;;;11.30;99.90;;;;;;5045715;28;20131;-78
2021/10/08 01:23:37;;;;;;;6.93;3.97;;;11.20;99.90;;;;;;5048784;28;20140;-80
2021/10/08 01:26:04;;;;;;;7.20;4.03;;;11.20;99.90;;;;;;5049645;28;20060;-77
2021/10/08 01:28:31;;;;;;;6.60;4.00;;;11.20;99.90;;;;;;5045510;28;20069;-80
2021/10/08 01:30:58;;;;;;;6.75;4.30;;;11.10;99.90;;;;;;5046003;28;20128;-78
2021/10/08 01:33:25;;;;;;;7.25;3.80;;;11.10;99.90;;;;;;5043456;28;20132;-79
2021/10/08 01:35:52;;;;;;;6.80;4.47;;;11.10;99.90;;;;;;5042399;28;20132;-79
2021/10/08 01:38:20;;;;;;;7.57;4.47;;;11.00;99.90;;;;;;5043634;28;20561;-79
2021/10/08 01:40:48;;;;;;;6.43;4.28;;;11.00;99.90;;;;;;5045629;28;20131;-79
2021/10/08 01:43:15;;;;;;;7.38;4.70;;;11.00;99.90;;;;;;5044663;28;20128;-79
2021/10/08 01:45:42;;;;;;;6.63;4.15;;;10.90;99.90;;;;;;5042043;28;20120;-78
2021/10/08 01:48:09;;;;;;;6.60;4.65;;;10.90;99.90;;;;;;5042856;28;20132;-78
2021/10/08 01:50:36;;;;;;;7.60;4.32;;;10.90;99.90;;;;;;5042061;28;20128;-77
2021/10/08 01:53:04;;;;;;;6.95;4.40;;;10.80;99.90;;;;;;5041500;28;20136;-79
2021/10/08 01:55:32;;;;;;;5.63;4.10;;;10.80;99.90;;;;;;5042455;28;20129;-80
2021/10/08 01:58:00;;;;;;;8.30;4.60;;;10.80;99.90;;;;;;5041881;28;20099;-78
2021/10/08 02:00:27;;;;;;;6.22;4.13;;;10.70;99.90;;;;;;5047364;28;20132;-79
2021/10/08 02:02:54;;;;;;;6.82;4.22;;;10.70;99.90;;;;;;5045184;28;20065;-79
2021/10/08 02:05:21;;;;;;;6.82;4.28;;;10.70;99.90;;;;;;5042978;28;20131;-79
2021/10/08 02:07:48;;;;;;;6.95;4.40;;;10.70;99.90;;;;;;5041530;28;20045;-80
2021/10/08 02:10:15;;;;;;;6.45;3.83;;;10.70;99.90;;;;;;5048216;28;20127;-78
2021/10/08 02:12:44;;;;;;;6.63;4.03;;;10.60;99.90;;;;;;5041787;28;20124;-80
2021/10/08 02:15:11;;;;;;;8.10;3.97;;;10.60;99.90;;;;;;5041759;28;20156;-78
2021/10/08 02:17:38;;;;;;;6.40;4.00;;;10.50;99.90;;;;;;5044782;28;20565;-79
2021/10/08 02:20:07;;;;;;;6.07;3.90;;;10.50;99.90;;;;;;5044239;28;20463;-78
2021/10/08 02:22:34;;;;;;;5.63;4.10;;;10.40;99.90;;;;;;5041548;28;20399;-80
2021/10/08 02:25:01;;;;;;;6.07;4.25;;;10.40;99.90;;;;;;5041376;28;20124;-79
2021/10/08 02:27:28;;;;;;;6.40;4.45;;;10.30;99.90;;;;;;5043853;28;20139;-79
2021/10/08 02:29:56;;;;;;;18.67;10.32;;;10.30;99.90;;;;;;5045882;28;20127;-80
2021/10/08 02:32:23;;;;;;;23.98;13.43;;;10.30;99.90;;;;;;5042390;28;20139;-79
2021/10/08 02:34:51;;;;;;;14.57;8.40;;;10.20;99.90;;;;;;5041194;28;20064;-80
2021/10/08 02:37:18;;;;;;;8.75;5.32;;;10.20;99.90;;;;;;5042422;28;20131;-78
2021/10/08 02:39:45;;;;;;;6.97;4.30;;;10.20;99.90;;;;;;5044381;28;20577;-77
2021/10/08 02:42:12;;;;;;;6.13;3.95;;;10.20;99.90;;;;;;5043985;28;20132;-77
2021/10/08 02:44:39;;;;;;;6.13;4.10;;;10.10;99.90;;;;;;5041265;28;20129;-76
2021/10/08 02:47:07;;;;;;;8.30;5.07;;;10.10;99.90;;;;;;5041158;28;20127;-77
2021/10/08 02:49:34;;;;;;;6.18;3.70;;;10.10;99.90;;;;;;5045354;28;20136;-77
2021/10/08 02:52:02;;;;;;;5.57;3.72;;;10.00;99.90;;;;;;5041624;28;20073;-79
2021/10/08 02:54:29;;;;;;;6.88;3.75;;;10.00;99.90;;;;;;5044117;28;20068;-80
2021/10/08 02:56:56;;;;;;;5.88;3.75;;;10.00;99.90;;;;;;5039179;28;20124;-77
2021/10/08 02:59:23;;;;;;;7.03;3.90;;;10.00;99.90;;;;;;5042587;28;20136;-79
2021/10/08 03:01:50;;;;;;;6.20;3.90;;;10.00;99.90;;;;;;5043358;28;20140;-78
2021/10/08 03:04:18;;;;;;;6.53;3.65;;;10.00;99.90;;;;;;5040578;28;20173;-79
2021/10/08 03:06:45;;;;;;;5.82;3.58;;;9.90;99.90;;;;;;5037854;28;20497;-79
2021/10/08 03:09:12;;;;;;;18.75;10.73;;;9.90;99.90;;;;;;5037170;28;20124;-79
2021/10/08 03:11:39;;;;;;;15.50;8.80;;;9.90;99.90;;;;;;5040760;28;20127;-79
2021/10/08 03:14:06;;;;;;;8.20;5.38;;;9.90;99.90;;;;;;5040350;28;20120;-80
2021/10/08 03:16:34;;;;;;;5.25;3.70;;;9.90;99.90;;;;;;5037080;28;20563;-78
2021/10/08 03:19:01;;;;;;;6.57;4.00;;;9.90;99.90;;;;;;5037166;28;20136;-80
2021/10/08 03:21:30;;;;;;;5.95;3.90;;;9.90;99.90;;;;;;5039763;28;20128;-79
2021/10/08 03:23:57;;;;;;;6.05;3.83;;;9.80;99.90;;;;;;5040509;28;20128;-79
2021/10/08 03:26:24;;;;;;;6.38;3.72;;;9.90;99.90;;;;;;5032585;28;20549;-79
2021/10/08 03:28:51;;;;;;;7.38;4.10;;;9.80;99.90;;;;;;5040016;28;20127;-77
2021/10/08 03:31:18;;;;;;;8.38;3.65;;;9.80;99.90;;;;;;5039012;28;20454;-77
2021/10/08 03:33:45;;;;;;;6.10;3.50;;;9.80;99.90;;;;;;5037532;28;20636;-80
2021/10/08 03:36:18;;;;;;;6.20;3.70;;;9.70;99.90;;;;;;5037204;28;20044;-80
2021/10/08 03:38:46;;;;;;;6.78;3.45;;;9.70;99.90;;;;;;5040667;28;20493;-77
2021/10/08 03:41:16;;;;;;;5.03;3.47;;;9.70;99.90;;;;;;5040136;28;20482;-80
2021/10/08 03:43:44;;;;;;;6.28;4.05;;;9.60;99.90;;;;;;5040268;28;20037;-80
2021/10/08 03:46:11;;;;;;;7.35;4.20;;;9.60;99.90;;;;;;5039867;28;20066;-79
2021/10/08 03:49:01;;;;;;;5.95;3.58;;;9.60;99.90;;;;;;5036948;28;20132;-77
2021/10/08 03:51:30;;;;;;;5.78;4.00;;;9.60;99.90;;;;;;5039575;28;20038;-79
2021/10/08 03:53:59;;;;;;;6.90;4.03;;;9.60;99.90;;;;;;5040101;28;20465;-81
2021/10/08 03:56:27;;;;;;;6.05;4.40;;;9.60;99.90;;;;;;5039112;28;20135;-80
2021/10/08 03:58:55;;;;;;;6.90;3.60;;;9.50;99.90;;;;;;5040397;28;20049;-79
2021/10/08 04:01:22;;;;;;;7.15;3.80;;;9.50;99.90;;;;;;5041304;28;20490;-79
2021/10/08 04:03:49;;;;;;;6.28;3.90;;;9.50;99.90;;;;;;5040203;28;20144;-80
2021/10/08 04:06:17;;;;;;;5.38;3.78;;;9.40;99.90;;;;;;5041454;28;20137;-80
2021/10/08 04:08:45;;;;;;;6.85;3.90;;;9.50;99.90;;;;;;5043591;28;20049;-80
2021/10/08 04:11:14;;;;;;;6.40;4.05;;;9.40;99.90;;;;;;5043084;28;20485;-80
2021/10/08 04:13:41;;;;;;;6.03;3.60;;;9.40;99.90;;;;;;5040183;28;20129;-80
2021/10/08 04:16:08;;;;;;;5.93;4.00;;;9.40;99.90;;;;;;5043639;28;20475;-80
2021/10/08 04:18:35;;;;;;;5.35;3.67;;;9.30;99.90;;;;;;5044420;28;20132;-80
2021/10/08 04:21:02;;;;;;;7.10;4.28;;;9.30;99.90;;;;;;5047059;28;20128;-79
2021/10/08 04:23:29;;;;;;;8.38;4.30;;;9.30;99.90;;;;;;5042043;28;20220;-78
2021/10/08 04:25:56;;;;;;;5.80;4.10;;;9.20;99.90;;;;;;5044750;28;20124;-76
2021/10/08 04:28:24;;;;;;;7.78;4.10;;;9.10;99.90;;;;;;5044431;28;20136;-75
2021/10/08 04:30:51;;;;;;;6.20;3.88;;;9.10;99.90;;;;;;5050191;28;20132;-77
2021/10/08 04:33:21;;;;;;;6.47;4.10;;;9.00;99.90;;;;;;5055807;28;20127;-77
2021/10/08 04:35:48;;;;;;;6.22;4.20;;;9.00;99.90;;;;;;5055887;28;20128;-75
2021/10/08 04:38:16;;;;;;;6.72;3.97;;;9.00;99.90;;;;;;5055433;28;20144;-78
2021/10/08 04:40:43;;;;;;;6.50;4.20;;;9.00;99.90;;;;;;5055364;28;20140;-78
2021/10/08 04:43:11;;;;;;;8.27;4.40;;;9.00;99.90;;;;;;5055457;28;20136;-78
2021/10/08 04:45:39;;;;;;;6.88;4.15;;;9.00;99.90;;;;;;5055389;28;20088;-78
2021/10/08 04:48:07;;;;;;;9.55;4.43;;;9.00;99.90;;;;;;5055257;28;20131;-76
2021/10/08 04:50:34;;;;;;;6.75;4.28;;;9.00;99.90;;;;;;5055028;28;20579;-77
2021/10/08 04:53:12;;;;;;;6.13;4.10;;;9.10;99.90;;;;;;5054996;28;20143;-77
2021/10/08 04:55:39;;;;;;;7.82;4.70;;;9.10;99.90;;;;;;5054745;28;20112;-79
2021/10/08 04:58:06;;;;;;;7.70;4.20;;;9.10;99.90;;;;;;5054732;28;20087;-76
2021/10/08 05:00:33;;;;;;;6.20;4.10;;;9.20;99.90;;;;;;5054798;28;20132;-77
2021/10/08 05:03:08;;;;;;;5.95;4.25;;;9.20;99.90;;;;;;5055271;28;20124;-75
2021/10/08 05:05:35;;;;;;;6.97;4.55;;;9.20;99.90;;;;;;5054913;28;20049;-79
2021/10/08 05:08:02;;;;;;;6.53;4.13;;;9.20;99.90;;;;;;5054937;28;20140;-76
2021/10/08 05:10:29;;;;;;;6.93;4.20;;;9.20;99.90;;;;;;5054743;28;20140;-79
2021/10/08 05:12:56;;;;;;;6.70;4.63;;;9.20;99.90;;;;;;5054825;28;20534;-78
2021/10/08 05:15:23;;;;;;;6.25;4.30;;;9.10;99.90;;;;;;5055933;28;20140;-76
2021/10/08 05:17:50;;;;;;;6.65;4.18;;;9.20;99.90;;;;;;5055334;28;20544;-75
2021/10/08 05:20:19;;;;;;;9.23;3.90;;;9.20;99.90;;;;;;5054766;28;20120;-75
2021/10/08 05:22:46;;;;;;;6.30;4.18;;;9.20;99.90;;;;;;5054537;28;20132;-75
2021/10/08 05:25:13;;;;;;;5.53;3.90;;;9.10;99.90;;;;;;5054715;28;20124;-77
2021/10/08 05:27:40;;;;;;;7.90;4.15;;;9.10;99.90;;;;;;5053851;28;20136;-78
2021/10/08 05:30:09;;;;;;;6.40;4.07;;;9.10;99.90;;;;;;5054707;28;20131;-78
2021/10/08 05:32:36;;;;;;;6.60;4.45;;;9.10;99.90;;;;;;5054613;28;20124;-75
2021/10/08 05:35:04;;;;;;;5.88;4.07;;;9.10;99.90;;;;;;5054560;28;20486;-77
2021/10/08 05:37:33;;;;;;;8.60;4.60;;;9.10;99.90;;;;;;5054339;28;20132;-77
2021/10/08 05:40:00;;;;;;;6.78;4.60;;;9.10;99.90;;;;;;5053611;28;20144;-77
2021/10/08 05:42:27;;;;;;;6.20;4.13;;;9.10;99.90;;;;;;5054577;28;20132;-76
2021/10/08 05:44:54;;;;;;;6.80;4.60;;;9.10;99.90;;;;;;5054086;28;20592;-78
2021/10/08 05:47:21;;;;;;;8.15;4.80;;;9.10;99.90;;;;;;5054119;28;20141;-76
2021/10/08 05:49:48;;;;;;;8.18;5.45;;;9.10;99.90;;;;;;5054104;28;20135;-76
2021/10/08 05:52:15;;;;;;;7.55;4.82;;;9.10;99.90;;;;;;5053936;28;20132;-77
2021/10/08 05:54:43;;;;;;;7.43;5.15;;;9.10;99.90;;;;;;5053976;28;20144;-78
2021/10/08 05:57:10;;;;;;;7.80;4.95;;;9.10;99.90;;;;;;5053885;28;20581;-79
2021/10/08 05:59:37;;;;;;;7.57;4.97;;;9.20;99.90;;;;;;5053942;28;20136;-78
2021/10/08 06:02:05;;;;;;;7.25;4.97;;;9.20;99.90;;;;;;5053479;28;20131;-77
2021/10/08 06:04:32;;;;;;;8.95;5.00;;;9.20;99.90;;;;;;5053717;28;20139;-76
2021/10/08 06:06:59;;;;;;;8.52;5.00;;;9.20;99.90;;;;;;5053813;28;20124;-77
2021/10/08 06:09:26;;;;;;;7.25;5.15;;;9.20;99.90;;;;;;5053631;28;20055;-78
2021/10/08 06:11:54;;;;;;;8.15;4.75;;;9.20;99.90;;;;;;5053649;28;20136;-77
2021/10/08 06:14:21;;;;;;;8.57;5.05;;;9.20;99.90;;;;;;5053505;28;20112;-79
2021/10/08 06:16:49;;;;;;;9.43;5.10;;;9.20;99.90;;;;;;5053514;28;20045;-78
2021/10/08 06:19:15;;;;;;;6.97;4.50;;;9.20;99.90;;;;;;5053680;28;20143;-76
2021/10/08 06:21:43;;;;;;;7.20;4.45;;;9.10;99.90;;;;;;5053380;28;20577;-79
2021/10/08 06:24:10;;;;;;;8.48;4.60;;;9.10;99.90;;;;;;5053684;28;20144;-79
2021/10/08 06:26:37;;;;;;;7.10;4.75;;;9.10;99.90;;;;;;5053322;28;20045;-78
2021/10/08 06:29:06;;;;;;;7.18;4.50;;;9.10;99.90;;;;;;5053365;28;20060;-78
2021/10/08 06:31:33;;;;;;;9.65;4.78;;;9.10;99.90;;;;;;5053561;28;20461;-77
2021/10/08 06:34:00;;;;;;;7.18;4.32;;;9.20;99.90;;;;;;5053358;28;20076;-76
2021/10/08 06:36:27;;;;;;;7.32;4.90;;;9.20;99.90;;;;;;5053181;28;20131;-78
2021/10/08 06:38:54;;;;;;;6.47;4.75;;;9.20;99.90;;;;;;5052620;28;20128;-79
2021/10/08 06:41:21;;;;;;;10.35;5.70;;;9.20;99.90;;;;;;5053147;28;20105;-77
2021/10/08 06:43:48;;;;;;;7.93;5.60;;;9.30;99.90;;;;;;5053316;28;20124;-75
2021/10/08 06:46:16;;;;;;;8.25;5.75;;;9.30;99.90;;;;;;5052994;28;20140;-77
2021/10/08 06:48:43;;;;;;;8.18;4.93;;;9.30;99.90;;;;;;5052996;28;20135;-77
2021/10/08 06:51:10;;;;;;;8.73;5.88;;;9.40;99.90;;;;;;5052939;28;20147;-78
2021/10/08 06:53:37;;;;;;;8.30;5.35;;;9.40;99.90;;;;;;5052781;28;20562;-77
2021/10/08 06:56:05;;;;;;;9.57;6.13;;;9.50;99.90;;;;;;5053172;28;20127;-76
2021/10/08 06:58:32;;;;;;;10.63;6.38;;;9.50;99.90;;;;;;5052886;28;20119;-80
2021/10/08 07:00:59;;;;;;;9.95;6.30;;;9.50;99.90;;;;;;5054222;28;20136;-76
2021/10/08 07:03:27;;;;;;;10.13;6.60;;;9.60;99.90;;;;;;5054063;28;20140;-76
2021/10/08 07:05:54;;;;;;;10.57;6.82;;;9.60;99.90;;;;;;5053492;28;20132;-74
2021/10/08 07:08:21;;;;;;;10.65;6.65;;;9.70;99.90;;;;;;5053602;28;20108;-75
2021/10/08 07:10:48;;;;;;;9.45;6.22;;;9.70;99.90;;;;;;5053715;28;20142;-75
2021/10/08 07:13:15;;;;;;;10.68;6.97;;;9.70;99.90;;;;;;5053160;28;20140;-76
2021/10/08 07:15:42;;;;;;;13.73;7.47;;;9.80;99.90;;;;;;5053017;28;20140;-77
2021/10/08 07:18:14;;;;;;;9.30;7.05;;;9.80;99.90;;;;;;5053101;28;20072;-76
2021/10/08 07:20:46;;;;;;;13.57;7.80;;;9.90;99.90;;;;;;5052120;28;20127;-74
2021/10/08 07:23:13;;;;;;;12.85;7.78;;;9.90;99.90;;;;;;5041918;28;20041;-77
2021/10/08 07:25:40;;;;;;;12.13;7.85;;;10.00;99.90;;;;;;5050696;28;20139;-77
2021/10/08 07:28:08;;;;;;;10.63;7.63;;;10.00;99.90;;;;;;5033491;28;20124;-77
2021/10/08 07:30:35;;;;;;;10.05;7.50;;;10.00;99.90;;;;;;5039414;28;20080;-76
2021/10/08 07:33:02;;;;;;;11.40;7.78;;;10.00;99.90;;;;;;5045862;28;20570;-75
2021/10/08 07:35:29;;;;;;;11.88;8.02;;;10.00;99.90;;;;;;5034845;28;20051;-75
2021/10/08 07:37:58;;;;;;;10.90;7.72;;;10.10;99.90;;;;;;5040157;28;20177;-77
2021/10/08 07:40:25;;;;;;;14.27;8.20;;;10.10;99.90;;;;;;5052379;28;20136;-75
2021/10/08 07:42:52;;;;;;;11.23;7.93;;;10.20;99.90;;;;;;5039315;28;20068;-76
2021/10/08 07:45:19;;;;;;;12.00;8.43;;;10.20;99.90;;;;;;5050074;28;20200;-78
2021/10/08 07:47:47;;;;;;;13.68;8.73;;;10.20;99.90;;;;;;5042396;28;20099;-78
2021/10/08 07:50:15;;;;;;;13.45;9.18;;;10.30;99.90;;;;;;5035287;28;20049;-77
2021/10/08 07:52:43;;;;;;;15.52;9.43;;;10.30;99.90;;;;;;5036886;28;20053;-75
2021/10/08 07:55:12;;;;;;;14.70;10.73;;;10.40;99.90;;;;;;5038011;28;20136;-76
2021/10/08 07:57:40;;;;;;;13.23;9.48;;;10.40;99.90;;;;;;5036756;28;20120;-80
2021/10/08 08:00:11;;;;;;;13.82;9.95;;;10.50;99.90;;;;;;5044408;28;20131;-78
2021/10/08 08:02:38;;;;;;;15.18;9.82;;;10.60;99.90;;;;;;5036587;28;20045;-76
2021/10/08 08:05:05;;;;;;;13.00;9.43;;;10.60;99.90;;;;;;5036556;28;20137;-78
2021/10/08 08:07:32;;;;;;;11.23;8.55;;;10.60;99.90;;;;;;5036199;28;20080;-75
2021/10/08 08:10:00;;;;;;;12.68;9.18;;;10.70;99.90;;;;;;5036287;28;20136;-77
2021/10/08 08:12:28;;;;;;;13.88;9.48;;;10.80;99.90;;;;;;5036336;28;20136;-75
2021/10/08 08:14:55;;;;;;;13.23;9.05;;;10.80;99.90;;;;;;5036361;28;20136;-74
2021/10/08 08:17:22;;;;;;;15.60;11.07;;;10.90;99.90;;;;;;5036120;28;20128;-76
2021/10/08 08:19:49;;;;;;;12.52;9.15;;;11.00;99.90;;;;;;5035974;28;20084;-76
2021/10/08 08:22:17;;;;;;;13.85;9.48;;;11.00;99.90;;;;;;5035912;28;20120;-75
2021/10/08 08:24:44;;;;;;;12.43;9.45;;;11.10;99.90;;;;;;5045678;28;20049;-76
2021/10/08 08:27:11;;;;;;;13.23;9.75;;;11.10;99.90;;;;;;5056018;28;20144;-76
2021/10/08 08:29:40;;;;;;;13.93;9.70;;;11.20;99.90;;;;;;5055489;28;20056;-76
2021/10/08 08:32:07;;;;;;;13.82;9.30;;;11.30;99.90;;;;;;5055664;28;20140;-75
2021/10/08 08:34:34;;;;;;;10.88;8.65;;;11.30;99.90;;;;;;5055588;28;20554;-76
2021/10/08 08:37:01;;;;;;;13.80;9.68;;;11.40;99.90;;;;;;5055522;28;20127;-77
2021/10/08 08:39:28;;;;;;;14.25;9.38;;;11.40;99.90;;;;;;5055349;28;20072;-76
2021/10/08 08:41:55;;;;;;;12.20;9.02;;;11.40;99.90;;;;;;5055622;28;20080;-76
2021/10/08 08:44:22;;;;;;;11.98;8.57;;;11.50;99.90;;;;;;5055439;28;20095;-76
2021/10/08 08:46:51;;;;;;;13.55;8.85;;;11.60;99.90;;;;;;5055468;28;20200;-76
2021/10/08 08:49:18;;;;;;;12.95;9.50;;;11.60;99.90;;;;;;5057394;28;20558;-78
2021/10/08 08:51:45;;;;;;;12.55;8.80;;;11.70;99.90;;;;;;5055965;28;20140;-74
2021/10/08 08:54:12;;;;;;;11.98;8.65;;;11.80;99.90;;;;;;5053341;28;20140;-77
2021/10/08 08:56:39;;;;;;;12.52;8.55;;;11.90;99.90;;;;;;5055237;28;20132;-76
2021/10/08 08:59:10;;;;;;;11.98;8.85;;;12.00;99.90;;;;;;5054941;28;20144;-75
2021/10/08 09:02:01;;;;;;;13.07;9.60;;;12.00;99.90;;;;;;5054348;28;20139;-75
2021/10/08 09:04:30;;;;;;;13.35;9.30;;;12.10;99.90;;;;;;5055263;28;20048;-78
2021/10/08 09:06:57;;;;;;;11.35;9.10;;;12.30;99.90;;;;;;5055084;28;20049;-76
2021/10/08 09:09:27;;;;;;;11.30;8.95;;;12.30;99.90;;;;;;5053150;28;20048;-75
2021/10/08 09:11:57;;;;;;;14.98;9.82;;;12.50;99.90;;;;;;5054859;28;20467;-76
2021/10/08 09:14:26;;;;;;;13.75;9.85;;;12.60;99.90;;;;;;5054665;28;20049;-78
2021/10/08 09:17:11;;;;;;;12.02;8.55;;;12.60;99.90;;;;;;5052287;28;20135;-78
2021/10/08 09:19:54;;;;;;;12.05;7.95;;;12.70;99.90;;;;;;5039380;28;20052;-80
2021/10/08 09:22:24;;;;;;;9.77;7.38;;;12.80;99.90;;;;;;5039139;28;20059;-79
2021/10/08 09:24:52;;;;;;;10.75;7.65;;;12.90;99.90;;;;;;5046599;28;20151;-81
2021/10/08 09:27:23;;;;;;;10.80;7.95;;;13.10;99.90;;;;;;5037818;28;20136;-79
2021/10/08 09:29:54;;;;;;;11.52;7.78;;;13.20;99.90;;;;;;5040823;28;20415;-78
2021/10/08 09:32:24;;;;;;;11.88;7.00;;;13.30;99.90;;;;;;5041802;28;20176;-79
2021/10/08 09:35:06;;;;;;;8.95;6.65;;;13.30;99.90;;;;;;5041133;28;20073;-78
2021/10/08 09:37:35;;;;;;;10.23;7.32;;;13.40;99.90;;;;;;5039309;28;20048;-79
2021/10/08 09:40:04;;;;;;;10.18;7.05;;;13.40;99.90;;;;;;5042002;28;20486;-80
2021/10/08 09:42:34;;;;;;;12.90;7.68;;;13.50;99.90;;;;;;5042295;28;20053;-79
2021/10/08 09:45:03;;;;;;;12.40;7.45;;;13.50;99.90;;;;;;5042008;28;20136;-81
2021/10/08 09:47:32;;;;;;;9.50;7.07;;;13.60;99.90;;;;;;5037874;28;20601;-79
2021/10/08 09:50:10;;;;;;;11.63;7.25;;;13.60;99.90;;;;;;5045319;28;20127;-80
2021/10/08 09:52:38;;;;;;;9.75;6.80;;;13.70;99.90;;;;;;5041671;28;20140;-75
2021/10/08 09:55:09;;;;;;;9.80;6.70;;;13.80;99.90;;;;;;5039668;28;20128;-79
2021/10/08 09:57:58;;;;;;;13.10;7.70;;;13.90;99.90;;;;;;5043901;28;20045;-79
2021/10/08 10:00:42;;;;;;;11.48;7.30;;;13.90;99.90;;;;;;5042874;28;20149;-79
2021/10/08 10:03:13;;;;;;;11.45;6.75;;;14.00;99.90;;;;;;5049736;28;20073;-78
2021/10/08 10:05:41;;;;;;;10.05;6.97;;;14.00;99.90;;;;;;5044516;28;20240;-78
2021/10/08 10:08:09;;;;;;;9.88;6.30;;;14.10;99.90;;;;;;5042294;28;20128;-79
2021/10/08 10:10:38;;;;;;;11.35;7.57;;;14.10;99.90;;;;;;5041585;28;20076;-79
2021/10/08 10:13:08;;;;;;;9.35;7.10;;;14.10;99.90;;;;;;5036734;28;20052;-79
2021/10/08 10:15:37;;;;;;;10.00;6.90;;;14.20;99.90;;;;;;5044075;28;20128;-79
2021/10/08 10:18:05;;;;;;;11.35;7.07;;;14.20;99.90;;;;;;5038149;28;20145;-80
2021/10/08 10:20:38;;;;;;;10.13;6.90;;;14.20;99.90;;;;;;5041396;28;20131;-78
2021/10/08 10:23:08;;;;;;;11.75;7.25;;;14.30;99.90;;;;;;5041803;28;20124;-77
2021/10/08 10:25:36;;;;;;;12.18;7.60;;;14.30;99.90;;;;;;5036350;28;20370;-79
2021/10/08 10:28:05;;;;;;;9.48;6.65;;;14.30;99.90;;;;;;5037348;28;20124;-79
2021/10/08 10:30:33;;;;;;;8.98;6.65;;;14.30;99.90;;;;;;5039057;28;20042;-78
2021/10/08 10:33:02;;;;;;;10.68;7.45;;;14.30;99.90;;;;;;5038121;28;20550;-77
2021/10/08 10:35:50;;;;;;;9.73;6.75;;;14.30;99.90;;;;;;5033865;28;20102;-79
2021/10/08 10:38:40;;;;;;;10.27;6.53;;;14.30;99.90;;;;;;5043198;28;20339;-80
2021/10/08 10:41:28;;;;;;;11.38;6.50;;;14.30;99.90;;;;;;5038099;28;20077;-78
2021/10/08 10:44:17;;;;;;;11.10;6.80;;;14.30;99.90;;;;;;5035955;28;20122;-82
2021/10/08 10:46:52;;;;;;;8.73;5.90;;;14.30;99.90;;;;;;5039525;28;20406;-81
2021/10/08 10:52:25;;;;;;;10.07;6.43;;;14.50;99.90;;;;;;5038014;28;20495;-82
2021/10/08 10:55:10;;;;;;;8.60;5.55;;;14.60;99.90;;;;;;5036812;28;20465;-85
2021/10/08 10:58:08;;;;;;;10.32;6.28;;;14.70;99.90;;;;;;5049073;28;20068;-83
2021/10/08 11:01:00;;;;;;;9.32;6.22;;;14.70;99.90;;;;;;5042778;28;20051;-82
2021/10/08 11:03:35;;;;;;;8.38;5.95;;;14.80;99.90;;;;;;5042929;28;20076;-87
2021/10/08 11:06:18;;;;;;;10.00;6.70;;;14.80;99.90;;;;;;5040600;28;20049;-79
2021/10/08 11:09:20;;;;;;;9.77;6.28;;;14.90;99.90;;;;;;5037997;28;20051;-79
2021/10/08 11:12:30;;;;;;;10.80;7.07;;;15.00;99.90;;;;;;5041528;28;20450;-81
2021/10/08 11:15:35;;;;;;;10.45;6.90;;;15.00;99.90;;;;;;5040677;28;20072;-79
2021/10/08 11:18:06;;;;;;;9.02;6.10;;;15.00;99.80;;;;;;5056012;28;20050;-79
2021/10/08 11:20:46;;;;;;;10.32;6.28;;;15.00;99.70;;;;;;5043654;28;20136;-80
2021/10/08 11:23:26;;;;;;;11.63;6.78;;;15.00;99.80;;;;;;5036800;28;20041;-80
2021/10/08 11:25:59;;;;;;;10.65;7.05;;;15.00;99.90;;;;;;5040888;28;20578;-79
2021/10/08 11:28:28;;;;;;;9.07;6.78;;;15.00;99.80;;;;;;5038635;28;20145;-80
2021/10/08 11:30:56;;;;;;;11.73;7.32;;;15.00;99.70;;;;;;5037061;28;20050;-82
2021/10/08 11:33:41;;;;;;;10.07;6.63;;;15.00;99.70;;;;;;5036756;28;20049;-77
2021/10/08 11:36:31;;;;;;;9.43;5.95;;;15.00;99.90;;;;;;5036831;28;20132;-77
2021/10/08 11:39:14;;;;;;;11.35;6.40;;;15.00;99.90;;;;;;5037236;28;20041;-80
2021/10/08 11:41:54;;;;;;;10.40;6.38;;;15.00;99.80;;;;;;5037538;28;20133;-80
2021/10/08 11:44:24;;;;;;;10.32;6.47;;;15.00;99.80;;;;;;5048393;28;20084;-81
2021/10/08 11:47:20;;;;;;;9.80;6.30;;;15.00;99.70;;;;;;5056133;28;20380;-78
2021/10/08 11:52:41;;;;;;;10.80;6.50;;;15.10;99.60;;;;;;5036355;28;20060;-79
2021/10/08 11:55:16;;;;;;;12.18;7.55;;;15.10;99.40;;;;;;5036318;28;20073;-80
2021/10/08 11:58:03;;;;;;;14.15;7.63;;;15.20;99.20;;;;;;5036442;28;20164;-78
2021/10/08 12:00:37;;;;;;;11.50;7.53;;;15.20;99.20;;;;;;5036355;28;20045;-81
2021/10/08 12:03:08;;;;;;;10.13;6.32;;;15.20;99.30;;;;;;5036290;28;20156;-77
2021/10/08 12:05:50;;;;;;;10.30;6.63;;;15.20;99.30;;;;;;5037060;28;20045;-78
2021/10/08 12:08:20;;;;;;;10.38;6.55;;;15.30;99.40;;;;;;5036169;28;20077;-81
2021/10/08 12:10:53;;;;;;;10.50;6.88;;;15.30;99.40;;;;;;5036157;28;20092;-79
2021/10/08 12:13:22;;;;;;;11.23;6.53;;;15.40;99.60;;;;;;5034791;28;20046;-78
2021/10/08 12:15:56;;;;;;;10.68;6.80;;;15.50;99.20;;;;;;5035946;28;20077;-80
2021/10/08 12:18:23;;;;;;;10.63;5.95;;;15.60;99.10;;;;;;5034836;28;20046;-80
2021/10/08 12:20:50;;;;;;;12.15;6.78;;;15.70;99.00;;;;;;5036888;28;20049;-81
2021/10/08 12:23:21;;;;;;;9.57;6.28;;;15.80;98.80;;;;;;5035979;28;20092;-79
2021/10/08 12:25:51;;;;;;;10.93;6.82;;;15.80;98.40;;;;;;5042344;28;20051;-76
2021/10/08 12:28:23;;;;;;;10.18;6.38;;;15.90;98.40;;;;;;5055325;28;20076;-80
2021/10/08 12:30:56;;;;;;;9.82;6.47;;;16.00;98.20;;;;;;5057214;28;20190;-79
2021/10/08 12:33:32;;;;;;;10.85;6.68;;;16.00;98.10;;;;;;5057735;28;20053;-79
2021/10/08 12:36:24;;;;;;;10.75;6.75;;;16.10;98.20;;;;;;5055153;28;20080;-80
2021/10/08 12:38:57;;;;;;;9.60;6.72;;;16.10;98.10;;;;;;5055539;28;20041;-79
2021/10/08 12:41:28;;;;;;;12.65;8.00;;;16.20;97.90;;;;;;5053911;28;20486;-79
2021/10/08 12:44:25;;;;;;;9.95;7.20;;;16.40;97.70;;;;;;5055312;28;20087;-79
2021/10/08 12:47:09;;;;;;;8.63;6.05;;;16.70;97.50;;;;;;5020776;28;20071;-80
2021/10/08 12:49:45;;;;;;;8.93;5.75;;;16.90;97.50;;;;;;5055444;28;20073;-81
2021/10/08 12:52:13;;;;;;;10.90;6.43;;;17.10;97.10;;;;;;5055161;28;20076;-78
2021/10/08 12:54:42;;;;;;;10.98;7.05;;;17.30;96.40;;;;;;5053797;28;20156;-78
2021/10/08 12:57:15;;;;;;;10.10;6.55;;;17.40;95.60;;;;;;5035194;28;20487;-79
2021/10/08 12:59:59;;;;;;;9.93;6.72;;;17.50;95.50;;;;;;5035137;28;20143;-80
2021/10/08 13:02:44;;;;;;;9.07;6.40;;;17.40;95.50;;;;;;5035242;28;20045;-80
2021/10/08 13:05:11;;;;;;;;;;;17.40;95.40;;;;;;5048252;28;20057;-79